Time;durP1;ratioP1;P1;durP2;ratioP2;P2;SDS_P1;SDS_P2;PMS_P1;PMS_P2;Temp;Humidity;BMP_temperature;BMP_pressure;BME280_temperature;BME280_humidity;BME280_pressure;Samples;Min_cycle;Max_cycle;Signal;HPM_P1;HPM_P2
2021/11/07 00:00:52;;;;;;;4.25;1.25;;;;;;;;;;5091977;28;20503;-59
2021/11/07 00:11:20;;;;;;;14.27;2.72;;;;;;;;;;5075974;28;20114;-59
2021/11/07 00:13:47;;;;;;;13.20;2.30;;;;;;;;;;5071520;28;20438;-59
2021/11/07 00:16:15;;;;;;;9.20;2.70;;;;;;;;;;5070725;28;20695;-60
2021/11/07 00:18:46;;;;;;;9.95;2.78;;;;;;;;;;5071789;28;20036;-58
2021/11/07 00:21:23;;;;;;;18.20;2.97;;;;;;;;;;5072328;28;20044;-61
2021/11/07 00:24:10;;;;;;;16.63;2.67;;;;;;;;;;5074320;28;20056;-60
2021/11/07 00:26:48;;;;;;;8.07;2.20;;;;;;;;;;5072319;28;20055;-60
2021/11/07 00:29:22;;;;;;;9.90;2.28;;;;;;;;;;5072900;28;20692;-61
2021/11/07 00:32:05;;;;;;;13.10;2.78;;;;;;;;;;5080850;28;20447;-60
2021/11/07 00:37:34;;;;;;;17.60;3.08;;;;;;;;;;5027922;28;20032;-59
2021/11/07 00:40:08;;;;;;;11.63;2.83;;;;;;;;;;5068381;28;20051;-60
2021/11/07 00:45:09;;;;;;;7.32;2.92;;;;;;;;;;5092389;28;20015;-61
2021/11/07 00:47:48;;;;;;;8.93;2.85;;;;;;;;;;5092182;28;20139;-58
2021/11/07 00:50:17;;;;;;;11.13;3.47;;;;;;;;;;5092427;28;20071;-58
2021/11/07 00:53:16;;;;;;;6.75;2.85;;;;;;;;;;5092018;28;20127;-59
2021/11/07 00:55:49;;;;;;;17.40;4.18;;;;;;;;;;5091380;28;20416;-58
2021/11/07 00:58:19;;;;;;;8.63;3.15;;;;;;;;;;5090375;28;20633;-61
2021/11/07 01:03:14;;;;;;;11.05;2.78;;;;;;;;;;5092752;28;20029;-61
2021/11/07 01:05:40;;;;;;;5.75;2.33;;;;;;;;;;5090827;28;20047;-61
2021/11/07 01:08:06;;;;;;;7.18;1.77;;;;;;;;;;5091495;28;20119;-60
2021/11/07 01:10:32;;;;;;;7.25;2.20;;;;;;;;;;5091890;28;20035;-59
2021/11/07 01:12:58;;;;;;;5.55;2.20;;;;;;;;;;5091671;28;20221;-58
2021/11/07 01:15:28;;;;;;;7.30;2.42;;;;;;;;;;5069522;28;20444;-60
2021/11/07 01:17:55;;;;;;;6.25;2.70;;;;;;;;;;5072489;28;20131;-59
2021/11/07 01:20:25;;;;;;;7.43;2.92;;;;;;;;;;5089402;28;20032;-61
2021/11/07 01:22:57;;;;;;;11.57;3.47;;;;;;;;;;5092012;28;20039;-59
2021/11/07 01:25:24;;;;;;;7.50;3.22;;;;;;;;;;5085997;28;20067;-60
2021/11/07 01:27:51;;;;;;;7.72;3.25;;;;;;;;;;5089609;28;20463;-60
2021/11/07 01:30:21;;;;;;;7.38;3.00;;;;;;;;;;5089589;28;21582;-60
2021/11/07 01:32:52;;;;;;;7.13;3.00;;;;;;;;;;5069403;28;20040;-61
2021/11/07 01:35:25;;;;;;;7.50;3.15;;;;;;;;;;5088684;28;20055;-61
2021/11/07 01:37:58;;;;;;;7.43;3.25;;;;;;;;;;5090725;28;20142;-59
2021/11/07 01:40:32;;;;;;;8.10;3.63;;;;;;;;;;5069832;28;20494;-60
2021/11/07 01:42:59;;;;;;;8.38;3.47;;;;;;;;;;5092446;28;20040;-59
2021/11/07 01:45:33;;;;;;;9.02;3.53;;;;;;;;;;5088404;28;20202;-58
2021/11/07 01:50:41;;;;;;;9.18;4.10;;;;;;;;;;5070612;28;20065;-61
2021/11/07 01:53:21;;;;;;;9.38;4.18;;;;;;;;;;5089980;28;20039;-60
2021/11/07 01:55:48;;;;;;;11.05;3.97;;;;;;;;;;5052664;28;20047;-60
2021/11/07 01:58:14;;;;;;;10.30;3.45;;;;;;;;;;5089372;28;20063;-62
2021/11/07 02:00:43;;;;;;;7.03;3.17;;;;;;;;;;5086476;28;20164;-60
2021/11/07 02:03:10;;;;;;;6.10;3.60;;;;;;;;;;5089120;28;20337;-61
2021/11/07 02:05:37;;;;;;;6.80;3.90;;;;;;;;;;5069830;28;20047;-60
2021/11/07 02:08:06;;;;;;;9.57;3.83;;;;;;;;;;5089549;28;20385;-61
2021/11/07 02:10:33;;;;;;;9.80;3.83;;;;;;;;;;5044942;28;20400;-61
2021/11/07 02:12:59;;;;;;;8.93;3.45;;;;;;;;;;5090569;28;20062;-58
2021/11/07 02:15:26;;;;;;;9.35;4.10;;;;;;;;;;5067658;28;20438;-59
2021/11/07 02:17:52;;;;;;;8.68;3.83;;;;;;;;;;5089658;28;20039;-59
2021/11/07 02:20:22;;;;;;;9.55;3.92;;;;;;;;;;5091226;28;20032;-63
2021/11/07 02:22:48;;;;;;;10.05;3.65;;;;;;;;;;5091655;28;20572;-59
2021/11/07 02:25:14;;;;;;;8.40;3.90;;;;;;;;;;5071413;28;20051;-57
2021/11/07 02:27:40;;;;;;;12.05;4.90;;;;;;;;;;5089598;28;20115;-60
2021/11/07 02:30:10;;;;;;;10.63;5.18;;;;;;;;;;5086929;28;20041;-60
2021/11/07 02:32:36;;;;;;;7.90;3.95;;;;;;;;;;5088499;28;20043;-60
2021/11/07 02:35:02;;;;;;;8.38;4.10;;;;;;;;;;5092744;28;20035;-60
2021/11/07 02:37:29;;;;;;;6.28;3.08;;;;;;;;;;5068868;28;20040;-60
2021/11/07 02:39:55;;;;;;;6.03;3.28;;;;;;;;;;5088622;28;20050;-56
2021/11/07 02:42:21;;;;;;;7.95;3.97;;;;;;;;;;5090730;28;20040;-60
2021/11/07 02:44:47;;;;;;;7.28;4.20;;;;;;;;;;5090288;28;20059;-60
2021/11/07 02:47:14;;;;;;;9.13;4.38;;;;;;;;;;5090116;28;20102;-60
2021/11/07 02:49:41;;;;;;;13.70;4.15;;;;;;;;;;5088072;28;20046;-59
2021/11/07 02:52:08;;;;;;;8.43;4.30;;;;;;;;;;5091203;28;20051;-60
2021/11/07 02:54:35;;;;;;;7.45;4.03;;;;;;;;;;5071630;28;20100;-59
2021/11/07 02:57:03;;;;;;;11.45;3.88;;;;;;;;;;5089457;28;20040;-59
2021/11/07 02:59:31;;;;;;;7.30;3.88;;;;;;;;;;5089315;28;20047;-58
2021/11/07 03:01:58;;;;;;;8.82;3.80;;;;;;;;;;5088806;28;20547;-59
2021/11/07 03:04:25;;;;;;;8.85;3.50;;;;;;;;;;5088499;28;20062;-60
2021/11/07 03:06:51;;;;;;;7.93;3.38;;;;;;;;;;5068575;28;20055;-61
2021/11/07 03:09:21;;;;;;;4.85;2.63;;;;;;;;;;5086386;28;20044;-58
2021/11/07 03:11:48;;;;;;;9.32;3.53;;;;;;;;;;5089145;28;20047;-60
2021/11/07 03:14:16;;;;;;;9.32;3.30;;;;;;;;;;5090585;28;20052;-56
2021/11/07 03:16:47;;;;;;;7.18;3.70;;;;;;;;;;5093584;28;20042;-58
2021/11/07 03:19:13;;;;;;;10.00;4.80;;;;;;;;;;5096453;28;20040;-59
2021/11/07 03:21:40;;;;;;;13.57;4.97;;;;;;;;;;5092545;28;20852;-60
2021/11/07 03:24:06;;;;;;;10.35;4.05;;;;;;;;;;5093032;28;20052;-58
2021/11/07 03:26:35;;;;;;;8.30;4.10;;;;;;;;;;5088646;28;20040;-60
2021/11/07 03:29:06;;;;;;;13.10;5.00;;;;;;;;;;5093621;28;20059;-58
2021/11/07 03:31:43;;;;;;;10.45;4.95;;;;;;;;;;5092827;28;20046;-58
2021/11/07 03:34:32;;;;;;;18.10;4.40;;;;;;;;;;5094567;28;20118;-57
2021/11/07 03:36:57;;;;;;;8.25;4.03;;;;;;;;;;5095536;28;20035;-56
2021/11/07 03:39:25;;;;;;;10.68;3.83;;;;;;;;;;5094267;28;20032;-58
2021/11/07 03:41:51;;;;;;;7.72;3.33;;;;;;;;;;5096585;28;20043;-60
2021/11/07 03:44:18;;;;;;;8.82;3.58;;;;;;;;;;5094566;28;20142;-60
2021/11/07 03:46:46;;;;;;;6.22;2.80;;;;;;;;;;5095687;28;20055;-59
2021/11/07 03:49:12;;;;;;;7.78;3.10;;;;;;;;;;5074251;28;20119;-60
2021/11/07 03:51:39;;;;;;;9.82;2.58;;;;;;;;;;5092702;28;20042;-58
2021/11/07 03:54:07;;;;;;;6.45;2.70;;;;;;;;;;5076900;28;20040;-59
2021/11/07 03:56:33;;;;;;;6.63;2.50;;;;;;;;;;5095811;28;20071;-61
2021/11/07 03:58:59;;;;;;;8.43;2.33;;;;;;;;;;5094431;28;20042;-57
2021/11/07 04:01:25;;;;;;;7.50;2.55;;;;;;;;;;5092349;28;20036;-61
2021/11/07 04:03:51;;;;;;;4.88;2.65;;;;;;;;;;5096153;28;20044;-59
2021/11/07 04:06:17;;;;;;;5.15;2.47;;;;;;;;;;5096691;28;20052;-57
2021/11/07 04:08:43;;;;;;;6.20;2.13;;;;;;;;;;5088166;28;20668;-59
2021/11/07 04:11:15;;;;;;;5.28;2.15;;;;;;;;;;5075523;28;20122;-60
2021/11/07 04:13:41;;;;;;;5.38;2.20;;;;;;;;;;5094250;28;20564;-61
2021/11/07 04:16:08;;;;;;;3.90;1.67;;;;;;;;;;5099136;28;20039;-60
2021/11/07 04:18:35;;;;;;;5.93;1.75;;;;;;;;;;5095503;28;20035;-60
2021/11/07 04:21:01;;;;;;;5.72;1.90;;;;;;;;;;5072560;28;20052;-61
2021/11/07 04:23:27;;;;;;;5.05;1.83;;;;;;;;;;5073300;28;20039;-61
2021/11/07 04:25:53;;;;;;;4.50;1.90;;;;;;;;;;5094019;28;20047;-60
2021/11/07 04:28:20;;;;;;;4.13;1.98;;;;;;;;;;5089970;28;20127;-60
2021/11/07 04:30:46;;;;;;;3.92;1.55;;;;;;;;;;5091351;28;20812;-62
2021/11/07 04:33:14;;;;;;;4.45;1.65;;;;;;;;;;5092102;28;20078;-61
2021/11/07 04:35:40;;;;;;;4.93;1.77;;;;;;;;;;5090748;28;20032;-61
2021/11/07 04:38:06;;;;;;;5.70;1.92;;;;;;;;;;5092767;28;20035;-61
2021/11/07 04:40:32;;;;;;;3.53;1.70;;;;;;;;;;5091376;28;20109;-61
2021/11/07 04:42:58;;;;;;;5.55;2.05;;;;;;;;;;5096259;28;20039;-63
2021/11/07 04:45:24;;;;;;;4.65;2.00;;;;;;;;;;5092265;28;20125;-61
2021/11/07 04:47:50;;;;;;;5.15;1.75;;;;;;;;;;5094044;28;20039;-64
2021/11/07 04:50:17;;;;;;;4.03;1.88;;;;;;;;;;5091948;28;20039;-62
2021/11/07 04:52:43;;;;;;;5.57;2.38;;;;;;;;;;5092898;28;20084;-64
2021/11/07 04:55:09;;;;;;;6.55;1.95;;;;;;;;;;5095231;28;21704;-59
2021/11/07 04:57:41;;;;;;;4.50;2.03;;;;;;;;;;5092378;28;20046;-61
2021/11/07 05:00:19;;;;;;;5.65;2.55;;;;;;;;;;5091656;28;20125;-62
2021/11/07 05:02:45;;;;;;;5.82;2.45;;;;;;;;;;5083546;28;20440;-61
2021/11/07 05:05:11;;;;;;;4.47;2.17;;;;;;;;;;5090880;28;20051;-61
2021/11/07 05:07:37;;;;;;;4.65;2.20;;;;;;;;;;5092655;28;20039;-60
2021/11/07 05:10:04;;;;;;;5.10;2.47;;;;;;;;;;5092680;28;20028;-62
2021/11/07 05:12:31;;;;;;;5.15;1.80;;;;;;;;;;5090106;28;20043;-60
2021/11/07 05:14:56;;;;;;;5.63;2.67;;;;;;;;;;5092157;28;20080;-61
2021/11/07 05:17:22;;;;;;;10.20;3.05;;;;;;;;;;5092319;28;20036;-62
2021/11/07 05:19:48;;;;;;;4.35;2.50;;;;;;;;;;5075312;28;20042;-62
2021/11/07 05:22:14;;;;;;;5.13;2.05;;;;;;;;;;5094387;28;20054;-57
2021/11/07 05:24:40;;;;;;;6.38;2.80;;;;;;;;;;5072012;28;20053;-61
2021/11/07 05:27:06;;;;;;;4.63;2.35;;;;;;;;;;5088720;28;20047;-60
2021/11/07 05:29:32;;;;;;;5.97;2.53;;;;;;;;;;5086687;28;20040;-61
2021/11/07 05:32:00;;;;;;;11.07;2.80;;;;;;;;;;5093339;28;20073;-61
2021/11/07 05:34:25;;;;;;;6.43;2.20;;;;;;;;;;5091423;28;20043;-60
2021/11/07 05:36:51;;;;;;;4.57;2.20;;;;;;;;;;5092796;28;20042;-61
2021/11/07 05:39:17;;;;;;;5.68;2.22;;;;;;;;;;5092118;28;20194;-61
2021/11/07 05:41:43;;;;;;;6.47;2.25;;;;;;;;;;5092456;28;20040;-59
2021/11/07 05:44:09;;;;;;;5.32;1.92;;;;;;;;;;5091264;28;20056;-59
2021/11/07 05:46:35;;;;;;;5.00;1.98;;;;;;;;;;5091784;28;20036;-61
2021/11/07 05:49:02;;;;;;;5.57;2.25;;;;;;;;;;5092381;28;20166;-60
2021/11/07 05:51:28;;;;;;;7.30;2.25;;;;;;;;;;5091265;28;20035;-59
2021/11/07 05:53:53;;;;;;;6.15;2.20;;;;;;;;;;5091110;28;20050;-60
2021/11/07 05:56:19;;;;;;;6.57;2.22;;;;;;;;;;5090916;28;20040;-59
2021/11/07 05:58:45;;;;;;;5.80;2.22;;;;;;;;;;5093696;28;20115;-59
2021/11/07 06:01:12;;;;;;;5.50;2.63;;;;;;;;;;5091303;28;20557;-59
2021/11/07 06:03:38;;;;;;;10.27;2.70;;;;;;;;;;5093185;28;20152;-61
2021/11/07 06:06:04;;;;;;;7.05;2.75;;;;;;;;;;5093869;28;20166;-59
2021/11/07 06:08:30;;;;;;;5.20;2.50;;;;;;;;;;5090843;28;20051;-59
2021/11/07 06:10:57;;;;;;;5.88;2.38;;;;;;;;;;5092534;28;20036;-59
2021/11/07 06:13:23;;;;;;;5.68;2.65;;;;;;;;;;5069335;28;20640;-60
2021/11/07 06:15:49;;;;;;;6.63;2.70;;;;;;;;;;5094591;28;20040;-61
2021/11/07 06:18:15;;;;;;;6.05;2.25;;;;;;;;;;5093757;28;20799;-59
2021/11/07 06:20:41;;;;;;;5.97;2.08;;;;;;;;;;5091290;28;20058;-59
2021/11/07 06:23:09;;;;;;;4.95;2.25;;;;;;;;;;5093738;28;20036;-60
2021/11/07 06:25:36;;;;;;;4.70;2.33;;;;;;;;;;5090815;28;20047;-58
2021/11/07 06:28:02;;;;;;;4.25;1.70;;;;;;;;;;5090784;28;20104;-61
2021/11/07 06:30:29;;;;;;;4.13;1.50;;;;;;;;;;5091478;28;20040;-61
2021/11/07 06:32:55;;;;;;;6.13;1.88;;;;;;;;;;5092275;28;20036;-59
2021/11/07 06:35:21;;;;;;;3.47;1.45;;;;;;;;;;5091055;28;20039;-61
2021/11/07 06:37:47;;;;;;;3.63;0.95;;;;;;;;;;5090862;28;20032;-60
2021/11/07 06:40:13;;;;;;;3.58;1.30;;;;;;;;;;5094580;28;20069;-60
2021/11/07 06:42:38;;;;;;;3.15;1.40;;;;;;;;;;5094629;28;20043;-60
2021/11/07 06:45:05;;;;;;;3.38;1.25;;;;;;;;;;5095617;28;20074;-59
2021/11/07 06:47:31;;;;;;;2.47;1.00;;;;;;;;;;5093749;28;20043;-60
2021/11/07 06:49:58;;;;;;;3.53;1.30;;;;;;;;;;5073851;28;20044;-61
2021/11/07 06:52:25;;;;;;;3.25;1.13;;;;;;;;;;5094516;28;20660;-60
2021/11/07 06:54:52;;;;;;;4.20;1.00;;;;;;;;;;5091949;28;21825;-60
2021/11/07 06:57:18;;;;;;;3.50;1.33;;;;;;;;;;5091262;28;20046;-58
2021/11/07 06:59:44;;;;;;;2.33;0.90;;;;;;;;;;5088999;28;20832;-59
2021/11/07 07:02:10;;;;;;;3.03;1.00;;;;;;;;;;5088926;28;20043;-59
2021/11/07 07:04:36;;;;;;;2.95;1.08;;;;;;;;;;5090220;28;20174;-60
2021/11/07 07:07:02;;;;;;;2.55;0.82;;;;;;;;;;5091922;28;20443;-59
2021/11/07 07:09:32;;;;;;;3.38;1.30;;;;;;;;;;5071640;28;20082;-54
2021/11/07 07:17:40;;;;;;;2.90;1.20;;;;;;;;;;5073955;28;20096;-57
2021/11/07 07:23:27;;;;;;;3.15;1.08;;;;;;;;;;5080276;28;20072;-58
2021/11/07 07:26:17;;;;;;;3.45;1.25;;;;;;;;;;5091640;28;20059;-58
2021/11/07 07:31:34;;;;;;;4.00;0.93;;;;;;;;;;5091001;28;20626;-58
2021/11/07 07:34:08;;;;;;;4.05;1.10;;;;;;;;;;5091231;28;20059;-60
2021/11/07 07:36:34;;;;;;;2.47;1.00;;;;;;;;;;5090210;28;20042;-60
2021/11/07 07:39:00;;;;;;;2.42;0.75;;;;;;;;;;5090857;28;20154;-60
2021/11/07 07:41:27;;;;;;;2.60;0.90;;;;;;;;;;5089607;28;20033;-60
2021/11/07 07:43:53;;;;;;;2.45;0.95;;;;;;;;;;5070847;28;20051;-59
2021/11/07 07:46:21;;;;;;;2.97;1.00;;;;;;;;;;5089594;28;20466;-57
2021/11/07 07:48:47;;;;;;;2.30;0.73;;;;;;;;;;5090090;28;20039;-58
2021/11/07 07:51:15;;;;;;;2.50;0.88;;;;;;;;;;5090505;28;20686;-60
2021/11/07 07:53:41;;;;;;;3.67;1.13;;;;;;;;;;5088627;28;20089;-60
2021/11/07 07:56:08;;;;;;;2.30;0.80;;;;;;;;;;5069752;28;20403;-57
2021/11/07 07:58:35;;;;;;;2.63;0.93;;;;;;;;;;5090525;28;20047;-60
2021/11/07 08:01:01;;;;;;;2.40;0.88;;;;;;;;;;5094209;28;20142;-59
2021/11/07 08:03:28;;;;;;;2.92;1.00;;;;;;;;;;5093988;28;20055;-59
2021/11/07 08:05:54;;;;;;;2.70;0.98;;;;;;;;;;5092807;28;20882;-59
2021/11/07 08:08:20;;;;;;;2.08;0.73;;;;;;;;;;5093977;28;20047;-59
2021/11/07 08:10:46;;;;;;;2.65;0.77;;;;;;;;;;5091988;28;20090;-60
2021/11/07 08:13:12;;;;;;;2.78;0.98;;;;;;;;;;5093694;28;20031;-59
2021/11/07 08:15:38;;;;;;;3.72;0.80;;;;;;;;;;5093610;28;20032;-57
2021/11/07 08:18:04;;;;;;;2.10;0.70;;;;;;;;;;5093959;28;20035;-60
2021/11/07 08:20:30;;;;;;;3.35;1.10;;;;;;;;;;5092888;28;20103;-60
2021/11/07 08:22:56;;;;;;;3.42;0.90;;;;;;;;;;5093533;28;20036;-60
2021/11/07 08:25:23;;;;;;;2.92;0.90;;;;;;;;;;5071783;28;20072;-60
2021/11/07 08:27:51;;;;;;;5.13;1.10;;;;;;;;;;5092220;28;20164;-60
2021/11/07 08:30:19;;;;;;;2.85;0.90;;;;;;;;;;5091969;28;20559;-59
2021/11/07 08:32:45;;;;;;;2.25;0.85;;;;;;;;;;5092019;28;20032;-59
2021/11/07 08:35:11;;;;;;;2.67;0.93;;;;;;;;;;5093611;28;20046;-61
2021/11/07 08:37:45;;;;;;;2.78;0.90;;;;;;;;;;5093984;28;20051;-60
2021/11/07 08:40:13;;;;;;;5.90;0.90;;;;;;;;;;5094114;28;20142;-59
2021/11/07 08:43:04;;;;;;;4.18;1.20;;;;;;;;;;5088687;28;20040;-60
2021/11/07 09:09:20;;;;;;;1.92;0.60;;;;;;;;;;5090920;28;21028;-60
2021/11/07 09:11:51;;;;;;;1.48;0.57;;;;;;;;;;5072601;28;20142;-61
2021/11/07 09:14:18;;;;;;;1.38;0.50;;;;;;;;;;5071390;28;20042;-60
2021/11/07 09:16:46;;;;;;;1.83;0.55;;;;;;;;;;5091520;28;20043;-62
2021/11/07 09:19:15;;;;;;;1.17;0.50;;;;;;;;;;5092978;28;21040;-60
2021/11/07 09:21:44;;;;;;;1.30;0.40;;;;;;;;;;5090500;28;20035;-58
2021/11/07 09:24:23;;;;;;;1.33;0.50;;;;;;;;;;5091636;28;20036;-60
2021/11/07 09:26:49;;;;;;;1.58;0.60;;;;;;;;;;5090649;28;20086;-60
2021/11/07 09:29:45;;;;;;;1.67;0.50;;;;;;;;;;5091446;28;20043;-60
2021/11/07 09:32:12;;;;;;;1.27;0.43;;;;;;;;;;5089336;28;20051;-59
2021/11/07 09:35:23;;;;;;;1.90;0.60;;;;;;;;;;5088751;28;20052;-59
2021/11/07 09:37:33;;;;;;;1.05;0.47;;;;;;;;;;5082314;28;20048;-60
2021/11/07 09:40:03;;;;;;;1.23;0.40;;;;;;;;;;5089786;28;20043;-59
2021/11/07 09:45:05;;;;;;;1.58;0.50;;;;;;;;;;5091970;28;20054;-61
2021/11/07 09:47:32;;;;;;;1.65;0.60;;;;;;;;;;5090761;28;20074;-60
2021/11/07 09:49:58;;;;;;;1.10;0.40;;;;;;;;;;5092230;28;20043;-56
2021/11/07 09:52:29;;;;;;;2.35;0.60;;;;;;;;;;5092425;28;20035;-57
2021/11/07 09:55:00;;;;;;;1.55;0.60;;;;;;;;;;5092067;28;20058;-57
2021/11/07 09:57:30;;;;;;;3.40;0.50;;;;;;;;;;5090937;28;20036;-56
2021/11/07 09:59:59;;;;;;;2.20;0.70;;;;;;;;;;5086144;28;20812;-58
2021/11/07 10:02:26;;;;;;;2.17;0.60;;;;;;;;;;5090089;28;20498;-59
2021/11/07 10:04:53;;;;;;;1.30;0.50;;;;;;;;;;5092930;28;20048;-57
2021/11/07 10:07:25;;;;;;;2.17;0.63;;;;;;;;;;5091973;28;20072;-58
2021/11/07 10:09:59;;;;;;;1.70;0.50;;;;;;;;;;5088734;28;20123;-57
2021/11/07 10:12:49;;;;;;;2.55;0.70;;;;;;;;;;5091378;28;20147;-56
2021/11/07 10:15:27;;;;;;;1.58;0.50;;;;;;;;;;5091370;28;20039;-58
2021/11/07 10:20:27;;;;;;;1.08;0.50;;;;;;;;;;5090072;28;20035;-60
2021/11/07 10:22:59;;;;;;;2.10;0.73;;;;;;;;;;5089118;28;20051;-58
2021/11/07 10:25:41;;;;;;;1.63;0.65;;;;;;;;;;5090695;28;20047;-60
2021/11/07 10:28:11;;;;;;;1.45;0.50;;;;;;;;;;5070298;28;20512;-59
2021/11/07 10:30:43;;;;;;;1.05;0.40;;;;;;;;;;5090050;28;22802;-57
2021/11/07 10:33:31;;;;;;;1.58;0.57;;;;;;;;;;5091552;28;20035;-56
2021/11/07 10:41:36;;;;;;;1.92;0.55;;;;;;;;;;5090363;28;20048;-57
2021/11/07 10:52:29;;;;;;;1.05;0.40;;;;;;;;;;5092562;28;19931;-59
2021/11/07 10:54:56;;;;;;;0.95;0.40;;;;;;;;;;5092620;28;20040;-59
2021/11/07 10:57:26;;;;;;;0.90;0.43;;;;;;;;;;5092540;28;20105;-60
2021/11/07 11:00:12;;;;;;;1.95;0.68;;;;;;;;;;5091581;28;20047;-60
2021/11/07 11:02:40;;;;;;;2.05;0.70;;;;;;;;;;5085374;28;20418;-60
2021/11/07 11:05:08;;;;;;;1.50;0.63;;;;;;;;;;5070288;28;20484;-57
2021/11/07 11:07:47;;;;;;;1.33;0.47;;;;;;;;;;5089545;28;20138;-60
2021/11/07 11:10:22;;;;;;;1.02;0.50;;;;;;;;;;5089533;28;20047;-60
2021/11/07 11:13:17;;;;;;;1.67;0.50;;;;;;;;;;5090870;28;20081;-57
2021/11/07 11:16:20;;;;;;;1.73;0.60;;;;;;;;;;5085496;28;20044;-59
2021/11/07 11:19:20;;;;;;;1.45;0.50;;;;;;;;;;5087412;28;20059;-59
2021/11/07 11:32:32;;;;;;;1.00;0.40;;;;;;;;;;5088907;28;20446;-59
2021/11/07 11:35:02;;;;;;;1.15;0.50;;;;;;;;;;5071953;28;20425;-60
2021/11/07 11:40:10;;;;;;;1.67;0.50;;;;;;;;;;5094220;28;20880;-61
2021/11/07 11:45:06;;;;;;;0.65;0.35;;;;;;;;;;5092679;28;20056;-60
2021/11/07 12:03:34;;;;;;;1.13;0.47;;;;;;;;;;5093523;28;20373;-56
2021/11/07 12:06:12;;;;;;;1.38;0.50;;;;;;;;;;5095676;28;20051;-60
2021/11/07 12:08:47;;;;;;;1.65;0.50;;;;;;;;;;5091184;28;20043;-59
2021/11/07 12:11:57;;;;;;;0.98;0.40;;;;;;;;;;5095338;28;20040;-60
2021/11/07 12:14:55;;;;;;;0.93;0.40;;;;;;;;;;5087766;28;20161;-59
2021/11/07 12:17:04;;;;;;;1.02;0.40;;;;;;;;;;5078853;28;20492;-59
2021/11/07 12:19:39;;;;;;;0.82;0.38;;;;;;;;;;5091095;28;20038;-59
2021/11/07 12:22:06;;;;;;;0.30;0.30;;;;;;;;;;5092908;28;20071;-61
2021/11/07 12:24:47;;;;;;;0.95;0.40;;;;;;;;;;5071500;28;20134;-59
2021/11/07 12:27:27;;;;;;;2.78;0.50;;;;;;;;;;5094809;28;20059;-60
2021/11/07 12:29:58;;;;;;;0.88;0.40;;;;;;;;;;5091100;28;20052;-60
2021/11/07 12:32:25;;;;;;;0.73;0.40;;;;;;;;;;5089922;28;20058;-59
2021/11/07 12:40:37;;;;;;;2.38;0.60;;;;;;;;;;5090652;28;20068;-59
2021/11/07 12:43:04;;;;;;;1.05;0.45;;;;;;;;;;5092281;28;20039;-59
2021/11/07 12:45:34;;;;;;;1.73;0.40;;;;;;;;;;5089830;28;20081;-60
2021/11/07 12:48:04;;;;;;;1.17;0.57;;;;;;;;;;5071925;28;20079;-57
2021/11/07 12:50:50;;;;;;;4.78;0.57;;;;;;;;;;5088176;28;20430;-58
2021/11/07 12:53:16;;;;;;;1.77;0.50;;;;;;;;;;5091893;28;20031;-57
2021/11/07 12:55:41;;;;;;;1.33;0.50;;;;;;;;;;5090601;28;20044;-59
2021/11/07 12:58:07;;;;;;;0.90;0.40;;;;;;;;;;5091935;28;20502;-60
2021/11/07 13:00:34;;;;;;;1.63;0.60;;;;;;;;;;5091495;28;20047;-58
2021/11/07 13:03:10;;;;;;;3.55;0.50;;;;;;;;;;5092988;28;20040;-59
2021/11/07 13:05:38;;;;;;;4.93;0.50;;;;;;;;;;5090613;28;20056;-59
2021/11/07 13:08:10;;;;;;;0.98;0.40;;;;;;;;;;5091438;28;20039;-57
2021/11/07 13:13:24;;;;;;;2.55;0.60;;;;;;;;;;5091717;28;20043;-60
2021/11/07 13:24:00;;;;;;;1.40;0.50;;;;;;;;;;5090380;28;20154;-59
2021/11/07 13:26:39;;;;;;;3.63;0.82;;;;;;;;;;5092050;28;20063;-60
2021/11/07 13:32:13;;;;;;;1.98;0.82;;;;;;;;;;5091674;28;20633;-58
2021/11/07 13:35:00;;;;;;;1.98;0.70;;;;;;;;;;5090299;28;20114;-61
2021/11/07 13:37:34;;;;;;;1.75;0.57;;;;;;;;;;5089945;28;20043;-59
2021/11/07 13:40:21;;;;;;;2.08;0.45;;;;;;;;;;5089750;28;20454;-59
2021/11/07 13:42:47;;;;;;;1.80;0.57;;;;;;;;;;5090590;28;20069;-59
2021/11/07 13:45:19;;;;;;;2.45;0.77;;;;;;;;;;5072844;28;20059;-58
2021/11/07 13:47:45;;;;;;;4.22;0.77;;;;;;;;;;5090135;28;20641;-60
2021/11/07 13:50:12;;;;;;;2.47;0.77;;;;;;;;;;5089310;28;20066;-59
2021/11/07 13:52:41;;;;;;;1.02;0.50;;;;;;;;;;5093645;28;20044;-61
2021/11/07 13:55:17;;;;;;;1.42;0.60;;;;;;;;;;5091143;28;20073;-60
2021/11/07 13:57:44;;;;;;;3.60;0.73;;;;;;;;;;5087548;28;20551;-62
2021/11/07 14:00:12;;;;;;;4.78;0.90;;;;;;;;;;5088179;28;20638;-60
2021/11/07 14:02:58;;;;;;;1.70;0.70;;;;;;;;;;5012466;28;20077;-59
2021/11/07 14:05:24;;;;;;;3.13;0.80;;;;;;;;;;5007124;28;20757;-59
2021/11/07 14:08:16;;;;;;;1.95;0.70;;;;;;;;;;5012386;28;20034;-59
2021/11/07 14:10:42;;;;;;;2.15;0.80;;;;;;;;;;5006648;28;20120;-61
2021/11/07 14:13:12;;;;;;;4.45;1.17;;;;;;;;;;5013397;28;20129;-60
2021/11/07 14:15:42;;;;;;;2.60;0.70;;;;;;;;;;5010143;28;20045;-59
2021/11/07 14:18:10;;;;;;;2.78;0.80;;;;;;;;;;5012252;28;20124;-60
2021/11/07 14:20:38;;;;;;;4.72;1.23;;;;;;;;;;5013677;28;20033;-61
2021/11/07 14:23:14;;;;;;;3.25;0.80;;;;;;;;;;5012226;28;21957;-57
2021/11/07 14:25:44;;;;;;;2.80;1.08;;;;;;;;;;5011548;28;20051;-60
2021/11/07 14:28:20;;;;;;;3.13;0.80;;;;;;;;;;5001816;28;20053;-61
2021/11/07 14:30:46;;;;;;;3.75;0.95;;;;;;;;;;4995212;28;20475;-58
2021/11/07 14:33:20;;;;;;;4.28;1.02;;;;;;;;;;4993336;28;20197;-58
2021/11/07 14:35:49;;;;;;;2.38;1.02;;;;;;;;;;4994293;28;20046;-60
2021/11/07 14:38:21;;;;;;;4.45;1.02;;;;;;;;;;4999086;28;20045;-59
2021/11/07 14:41:08;;;;;;;2.72;1.00;;;;;;;;;;5021021;28;20028;-60
2021/11/07 14:43:38;;;;;;;4.43;1.10;;;;;;;;;;5051232;28;20076;-59
2021/11/07 14:48:55;;;;;;;4.05;1.10;;;;;;;;;;5051346;28;20037;-59
2021/11/07 14:51:38;;;;;;;10.20;1.35;;;;;;;;;;5064188;28;20437;-57
2021/11/07 15:02:20;;;;;;;2.08;0.85;;;;;;;;;;5041513;28;20044;-59
2021/11/07 15:05:09;;;;;;;10.68;1.13;;;;;;;;;;5039881;28;20513;-61
2021/11/07 15:07:45;;;;;;;14.23;1.10;;;;;;;;;;5050861;28;20043;-61
2021/11/07 15:15:34;;;;;;;3.72;1.02;;;;;;;;;;5048062;28;20052;-58
2021/11/07 15:18:20;;;;;;;4.88;1.23;;;;;;;;;;5045451;28;20916;-59
2021/11/07 15:20:54;;;;;;;5.25;1.15;;;;;;;;;;5045945;28;20037;-60
2021/11/07 15:23:26;;;;;;;4.72;1.10;;;;;;;;;;5048200;28;20120;-61
2021/11/07 15:25:53;;;;;;;7.55;1.08;;;;;;;;;;5055800;28;20044;-61
2021/11/07 15:28:23;;;;;;;6.07;1.27;;;;;;;;;;5084332;28;20483;-60
2021/11/07 15:30:49;;;;;;;3.92;1.20;;;;;;;;;;5096206;28;20040;-61
2021/11/07 15:33:17;;;;;;;4.95;0.90;;;;;;;;;;5092651;28;20093;-61
2021/11/07 15:35:47;;;;;;;2.58;0.80;;;;;;;;;;5095421;28;20440;-58
2021/11/07 15:38:15;;;;;;;2.40;0.75;;;;;;;;;;5096406;28;20039;-58
2021/11/07 15:40:41;;;;;;;3.83;1.15;;;;;;;;;;5092751;28;20669;-59
2021/11/07 15:43:18;;;;;;;2.88;1.02;;;;;;;;;;5092228;28;20040;-59
2021/11/07 15:46:05;;;;;;;8.25;2.58;;;;;;;;;;5070145;28;20062;-60
2021/11/07 15:48:51;;;;;;;5.55;1.65;;;;;;;;;;5092914;28;20034;-58
2021/11/07 15:51:32;;;;;;;5.13;1.30;;;;;;;;;;5090948;28;20032;-56
2021/11/07 15:56:39;;;;;;;3.42;1.00;;;;;;;;;;5093685;28;20047;-57
2021/11/07 16:02:21;;;;;;;4.45;1.38;;;;;;;;;;5094659;28;20031;-59
2021/11/07 16:09:41;;;;;;;9.02;1.00;;;;;;;;;;5074595;28;20553;-57
2021/11/07 16:14:56;;;;;;;2.33;0.80;;;;;;;;;;5093441;28;20059;-59
2021/11/07 16:17:28;;;;;;;1.77;0.60;;;;;;;;;;5096120;28;20032;-56
2021/11/07 16:19:57;;;;;;;5.25;1.02;;;;;;;;;;5094425;28;20032;-60
2021/11/07 16:22:23;;;;;;;3.63;0.85;;;;;;;;;;5094001;28;20097;-58
2021/11/07 16:24:49;;;;;;;1.83;0.60;;;;;;;;;;5094842;28;20458;-59
2021/11/07 16:27:17;;;;;;;1.70;0.52;;;;;;;;;;5092831;28;20093;-55
2021/11/07 16:29:43;;;;;;;1.67;0.50;;;;;;;;;;5092661;28;20527;-60
2021/11/07 16:34:45;;;;;;;2.30;1.00;;;;;;;;;;5093019;28;20051;-57
2021/11/07 16:37:16;;;;;;;2.80;0.70;;;;;;;;;;5092854;28;20308;-58
2021/11/07 16:39:49;;;;;;;4.15;0.98;;;;;;;;;;5088932;28;20044;-60
2021/11/07 16:42:16;;;;;;;2.95;0.70;;;;;;;;;;5091343;28;20466;-59
2021/11/07 16:44:42;;;;;;;1.63;0.63;;;;;;;;;;5092017;28;20163;-60
2021/11/07 16:47:16;;;;;;;1.55;0.55;;;;;;;;;;5093381;28;20058;-57
2021/11/07 16:49:42;;;;;;;1.50;0.57;;;;;;;;;;5091731;28;20070;-60
2021/11/07 16:52:20;;;;;;;1.95;0.70;;;;;;;;;;5092897;28;20046;-60
2021/11/07 16:54:57;;;;;;;1.55;0.70;;;;;;;;;;5089050;28;20519;-60
2021/11/07 16:57:25;;;;;;;2.03;0.57;;;;;;;;;;5091333;28;20036;-59
2021/11/07 17:02:26;;;;;;;0.75;0.40;;;;;;;;;;5091284;28;20686;-59
2021/11/07 17:05:01;;;;;;;2.10;0.60;;;;;;;;;;5091481;28;20067;-61
2021/11/07 17:07:34;;;;;;;2.67;0.70;;;;;;;;;;5089908;28;20372;-61
2021/11/07 17:10:03;;;;;;;2.35;0.70;;;;;;;;;;5089956;28;20062;-59
2021/11/07 17:12:32;;;;;;;2.17;0.80;;;;;;;;;;5093140;28;20035;-59
2021/11/07 17:15:03;;;;;;;1.40;0.50;;;;;;;;;;5092083;28;20039;-61
2021/11/07 17:17:44;;;;;;;2.20;0.60;;;;;;;;;;5087191;28;20864;-60
2021/11/07 17:20:14;;;;;;;2.08;0.57;;;;;;;;;;5088768;28;20059;-59
2021/11/07 17:25:39;;;;;;;1.70;0.60;;;;;;;;;;5075676;28;20054;-58
2021/11/07 17:30:48;;;;;;;1.42;0.52;;;;;;;;;;5089776;28;20468;-60
2021/11/07 17:33:32;;;;;;;1.80;0.60;;;;;;;;;;5091781;28;20146;-59
2021/11/07 17:36:15;;;;;;;1.50;0.60;;;;;;;;;;5083017;28;20040;-59
2021/11/07 17:57:03;;;;;;;3.50;0.57;;;;;;;;;;5089996;28;20047;-57
2021/11/07 17:59:29;;;;;;;0.93;0.40;;;;;;;;;;5089283;28;20043;-60
2021/11/07 18:01:56;;;;;;;1.45;0.40;;;;;;;;;;5092316;28;20146;-60